Time,TemperatureF,DewpointF,PressureIn,WindDirection,WindDirectionDegrees,WindSpeedMPH,WindSpeedGustMPH,Humidity,HourlyPrecipIn,Conditions,Clouds,dailyrainin,SoftwareType,DateUTC
2013-02-11 00:00:00,26.5,16.6,30.21,North,0,0.0,1.3,66,0.00,,,0.00,WUHU216HW,2013-02-11 05:00:00,
2013-02-11 00:05:00,26.5,16.9,30.20,North,0,1.1,1.3,67,0.00,,,0.00,WUHU216HW,2013-02-11 05:05:00,
2013-02-11 00:11:00,26.6,17.5,30.20,NNE,23,0.4,1.8,68,0.00,,,0.00,WUHU216HW,2013-02-11 05:11:00,
2013-02-11 00:16:00,26.8,17.6,30.20,North,0,1.3,1.8,68,0.00,,,0.00,WUHU216HW,2013-02-11 05:16:00,
2013-02-11 00:21:00,27.0,18.2,30.19,ENE,68,0.4,1.8,69,0.00,,,0.00,WUHU216HW,2013-02-11 05:21:00,
2013-02-11 00:26:00,27.0,18.5,30.19,NE,45,1.1,1.8,70,0.00,,,0.00,WUHU216HW,2013-02-11 05:26:00,
2013-02-11 00:31:00,27.0,18.8,30.19,NE,45,0.9,1.8,71,0.00,,,0.00,WUHU216HW,2013-02-11 05:31:00,
2013-02-11 00:36:00,27.2,18.7,30.19,NE,45,1.1,1.8,70,0.00,,,0.00,WUHU216HW,2013-02-11 05:36:00,
2013-02-11 00:41:00,27.4,19.2,30.19,NNE,23,1.1,1.8,71,0.00,,,0.00,WUHU216HW,2013-02-11 05:41:00,
2013-02-11 00:46:00,27.4,19.2,30.18,NNE,23,1.1,1.8,71,0.00,,,0.00,WUHU216HW,2013-02-11 05:46:00,
2013-02-11 00:51:00,27.7,19.9,30.18,NNE,23,0.4,2.2,72,0.00,,,0.00,WUHU216HW,2013-02-11 05:51:00,
2013-02-11 00:56:00,27.9,20.3,30.18,NE,45,1.3,2.2,73,0.00,,,0.00,WUHU216HW,2013-02-11 05:56:00,
2013-02-11 01:01:00,28.1,20.9,30.19,NNE,23,1.8,2.0,74,0.00,,,0.00,WUHU216HW,2013-02-11 06:01:00,
2013-02-11 01:06:00,28.1,20.9,30.18,North,0,1.8,2.5,74,0.00,,,0.00,WUHU216HW,2013-02-11 06:06:00,
2013-02-11 01:12:00,28.1,20.9,30.18,NE,45,2.2,2.5,74,0.00,,,0.00,WUHU216HW,2013-02-11 06:12:00,
2013-02-11 01:17:00,27.9,20.3,30.18,North,0,1.1,2.5,73,0.00,,,0.00,WUHU216HW,2013-02-11 06:17:00,
2013-02-11 01:22:00,27.9,21.0,30.17,North,0,1.8,2.0,75,0.00,,,0.00,WUHU216HW,2013-02-11 06:22:00,
2013-02-11 01:27:00,27.9,20.7,30.17,NNE,23,2.5,2.5,74,0.00,,,0.00,WUHU216HW,2013-02-11 06:27:00,
2013-02-11 01:32:00,27.9,21.0,30.16,North,0,1.1,2.5,75,0.00,,,0.00,WUHU216HW,2013-02-11 06:32:00,
2013-02-11 01:37:00,28.1,20.9,30.16,NNE,23,3.4,3.4,74,0.00,,,0.00,WUHU216HW,2013-02-11 06:37:00,
2013-02-11 01:43:00,28.1,21.2,30.16,North,0,1.1,3.4,75,0.00,,,0.00,WUHU216HW,2013-02-11 06:43:00,
2013-02-11 01:48:00,28.3,21.3,30.16,North,0,2.0,2.0,75,0.00,,,0.00,WUHU216HW,2013-02-11 06:48:00,
2013-02-11 01:53:00,28.4,21.8,30.16,NNE,23,1.3,2.0,76,0.00,,,0.00,WUHU216HW,2013-02-11 06:53:00,
2013-02-11 01:58:00,28.4,21.8,30.15,North,0,2.5,2.5,76,0.00,,,0.00,WUHU216HW,2013-02-11 06:58:00,
2013-02-11 02:03:00,28.4,21.5,30.16,North,0,0.9,2.5,75,0.00,,,0.00,WUHU216HW,2013-02-11 07:03:00,
2013-02-11 02:08:00,28.6,21.7,30.16,North,0,0.9,1.8,75,0.00,,,0.00,WUHU216HW,2013-02-11 07:08:00,
2013-02-11 02:13:00,29.0,22.7,30.16,NNE,23,2.0,2.0,77,0.00,,,0.00,WUHU216HW,2013-02-11 07:13:00,
2013-02-11 02:18:00,29.2,22.9,30.15,West,270,1.8,2.5,77,0.00,,,0.00,WUHU216HW,2013-02-11 07:18:00,
2013-02-11 02:24:00,29.2,22.9,30.15,NNE,23,1.8,2.0,77,0.00,,,0.00,WUHU216HW,2013-02-11 07:24:00,
2013-02-11 02:29:00,29.3,23.3,30.15,NNE,23,1.8,3.4,78,0.00,,,0.00,WUHU216HW,2013-02-11 07:29:00,
2013-02-11 02:34:00,29.3,23.3,30.14,NNE,23,1.1,3.4,78,0.00,,,0.00,WUHU216HW,2013-02-11 07:34:00,
2013-02-11 02:39:00,29.3,23.3,30.14,NE,45,2.0,2.5,78,0.00,,,0.00,WUHU216HW,2013-02-11 07:39:00,
2013-02-11 02:44:00,29.5,23.8,30.14,NNE,23,1.1,2.0,79,0.00,,,0.00,WUHU216HW,2013-02-11 07:44:00,
2013-02-11 02:49:00,29.5,23.1,30.13,North,0,1.3,2.0,77,0.00,,,0.00,WUHU216HW,2013-02-11 07:49:00,
2013-02-11 02:54:00,29.5,23.5,30.13,North,0,0.7,3.4,78,0.00,,,0.00,WUHU216HW,2013-02-11 07:54:00,
2013-02-11 02:59:00,29.5,23.5,30.13,North,0,1.3,3.4,78,0.00,,,0.00,WUHU216HW,2013-02-11 07:59:00,
2013-02-11 03:04:00,29.7,23.9,30.12,NNE,23,2.5,2.5,79,0.00,,,0.00,WUHU216HW,2013-02-11 08:04:00,
2013-02-11 03:09:00,29.7,23.9,30.11,NNE,23,1.3,2.9,79,0.00,,,0.00,WUHU216HW,2013-02-11 08:09:00,
2013-02-11 03:14:00,29.7,23.9,30.10,West,270,0.7,2.9,79,0.00,,,0.00,WUHU216HW,2013-02-11 08:14:00,
2013-02-11 03:19:00,29.9,24.1,30.10,NNE,23,1.8,2.5,79,0.00,,,0.00,WUHU216HW,2013-02-11 08:19:00,
2013-02-11 03:24:00,29.9,24.1,30.10,North,0,1.3,2.5,79,0.00,,,0.00,WUHU216HW,2013-02-11 08:24:00,
2013-02-11 03:30:00,29.9,24.1,30.10,NNE,23,1.1,2.2,79,0.00,,,0.00,WUHU216HW,2013-02-11 08:30:00,
2013-02-11 03:35:00,29.9,24.1,30.10,NNE,23,0.9,2.0,79,0.00,,,0.00,WUHU216HW,2013-02-11 08:35:00,
2013-02-11 03:40:00,29.9,23.9,30.10,North,0,0.9,2.5,78,0.00,,,0.00,WUHU216HW,2013-02-11 08:40:00,
2013-02-11 03:45:00,29.7,23.7,30.10,North,0,0.9,2.5,78,0.00,,,0.00,WUHU216HW,2013-02-11 08:45:00,
2013-02-11 03:50:00,29.7,23.7,30.10,North,0,1.1,2.5,78,0.00,,,0.00,WUHU216HW,2013-02-11 08:50:00,
2013-02-11 03:55:00,29.9,24.1,30.09,North,0,1.1,2.2,79,0.00,,,0.00,WUHU216HW,2013-02-11 08:55:00,
2013-02-11 04:00:00,29.9,24.1,30.10,NE,45,0.9,2.0,79,0.00,,,0.00,WUHU216HW,2013-02-11 09:00:00,
2013-02-11 04:05:00,29.9,24.1,30.10,NE,45,1.8,2.0,79,0.00,,,0.00,WUHU216HW,2013-02-11 09:05:00,
2013-02-11 04:10:00,30.1,24.3,30.10,NNE,23,1.6,2.2,79,0.00,,,0.00,WUHU216HW,2013-02-11 09:10:00,
2013-02-11 04:15:00,30.1,24.3,30.10,NNE,23,0.4,2.2,79,0.00,,,0.00,WUHU216HW,2013-02-11 09:15:00,
2013-02-11 04:20:00,30.2,24.5,30.09,NNE,23,1.8,2.9,79,0.00,,,0.00,WUHU216HW,2013-02-11 09:20:00,
2013-02-11 04:26:00,30.2,24.8,30.10,NE,45,2.2,3.4,80,0.00,,,0.00,WUHU216HW,2013-02-11 09:26:00,
2013-02-11 04:31:00,30.4,24.7,30.09,NE,45,1.8,3.4,79,0.00,,,0.00,WUHU216HW,2013-02-11 09:31:00,
2013-02-11 04:37:00,30.6,25.2,30.09,NNE,23,1.1,2.2,80,0.00,,,0.00,WUHU216HW,2013-02-11 09:37:00,
2013-02-11 04:42:00,30.8,25.4,30.09,NNE,23,1.6,1.8,80,0.00,,,0.00,WUHU216HW,2013-02-11 09:42:00,
2013-02-11 04:47:00,31.0,25.6,30.09,NE,45,1.1,1.8,80,0.00,,,0.00,WUHU216HW,2013-02-11 09:47:00,
2013-02-11 04:52:00,31.1,25.7,30.09,ENE,68,0.7,1.6,80,0.00,,,0.00,WUHU216HW,2013-02-11 09:52:00,
2013-02-11 04:57:00,31.0,25.2,30.09,NNE,23,0.4,1.8,79,0.00,,,0.00,WUHU216HW,2013-02-11 09:57:00,
2013-02-11 05:02:00,31.1,26.0,30.07,WSW,248,0.7,1.8,81,0.00,,,0.00,WUHU216HW,2013-02-11 10:02:00,
2013-02-11 05:07:00,31.1,25.7,30.07,WSW,248,0.0,0.7,80,0.00,,,0.00,WUHU216HW,2013-02-11 10:07:00,
2013-02-11 05:12:00,31.3,26.2,30.07,WSW,248,1.1,1.1,81,0.00,,,0.00,WUHU216HW,2013-02-11 10:12:00,
2013-02-11 05:17:00,31.3,25.9,30.06,North,0,0.4,1.1,80,0.00,,,0.00,WUHU216HW,2013-02-11 10:17:00,
2013-02-11 05:22:00,31.3,25.9,30.06,North,0,1.6,1.6,80,0.00,,,0.00,WUHU216HW,2013-02-11 10:22:00,
2013-02-11 05:28:00,31.3,26.2,30.05,NNE,23,1.8,1.8,81,0.00,,,0.00,WUHU216HW,2013-02-11 10:28:00,
2013-02-11 05:33:00,31.3,26.2,30.05,North,0,0.2,2.2,81,0.00,,,0.00,WUHU216HW,2013-02-11 10:33:00,
2013-02-11 05:38:00,31.5,26.4,30.05,North,0,0.4,2.9,81,0.00,,,0.00,WUHU216HW,2013-02-11 10:38:00,
2013-02-11 05:43:00,31.7,26.6,30.04,North,0,2.2,2.9,81,0.00,,,0.00,WUHU216HW,2013-02-11 10:43:00,
2013-02-11 05:48:00,31.7,26.6,30.04,North,0,0.0,3.4,81,0.00,,,0.00,WUHU216HW,2013-02-11 10:48:00,
2013-02-11 05:53:00,31.9,27.0,30.04,NNE,23,0.0,4.0,82,0.00,,,0.00,WUHU216HW,2013-02-11 10:53:00,
2013-02-11 05:58:00,32.0,27.2,30.04,NNE,23,1.1,4.0,82,0.00,,,0.00,WUHU216HW,2013-02-11 10:58:00,
2013-02-11 06:03:00,32.0,26.9,30.04,North,0,0.2,1.6,81,0.00,,,0.00,WUHU216HW,2013-02-11 11:03:00,
2013-02-11 06:08:00,32.2,27.1,30.04,NNW,338,2.5,2.5,81,0.00,,,0.00,WUHU216HW,2013-02-11 11:08:00,
2013-02-11 06:13:00,32.2,27.4,30.03,NNW,338,1.1,2.5,82,0.00,,,0.00,WUHU216HW,2013-02-11 11:13:00,
2013-02-11 06:18:00,32.4,27.3,30.04,NE,45,2.2,3.1,81,0.00,,,0.00,WUHU216HW,2013-02-11 11:18:00,
2013-02-11 06:23:00,32.4,27.5,30.03,West,270,1.1,3.1,82,0.00,,,0.00,WUHU216HW,2013-02-11 11:23:00,
2013-02-11 06:28:00,32.6,28.0,30.02,WNW,293,1.1,1.8,83,0.00,,,0.00,WUHU216HW,2013-02-11 11:28:00,
2013-02-11 06:33:00,32.8,28.2,30.02,NW,315,1.1,1.8,83,0.00,,,0.00,WUHU216HW,2013-02-11 11:33:00,
2013-02-11 06:38:00,32.8,28.2,30.02,NW,315,2.0,3.1,83,0.00,,,0.00,WUHU216HW,2013-02-11 11:38:00,
2013-02-11 06:43:00,32.8,28.2,30.01,NW,315,1.1,3.1,83,0.00,,,0.00,WUHU216HW,2013-02-11 11:43:00,
2013-02-11 06:49:00,32.9,28.6,30.01,SE,135,1.1,2.0,84,0.00,,,0.00,WUHU216HW,2013-02-11 11:49:00,
2013-02-11 06:54:00,33.1,28.8,30.02,NNW,338,1.3,1.8,84,0.00,,,0.00,WUHU216HW,2013-02-11 11:54:00,
2013-02-11 06:59:00,33.1,28.8,30.01,NNW,338,0.0,2.0,84,0.00,,,0.00,WUHU216HW,2013-02-11 11:59:00,
2013-02-11 07:04:00,33.1,29.1,30.00,SSW,203,0.4,2.5,85,0.00,,,0.00,WUHU216HW,2013-02-11 12:04:00,
2013-02-11 07:09:00,33.3,29.5,30.00,North,0,1.8,3.4,86,0.00,,,0.00,WUHU216HW,2013-02-11 12:09:00,
2013-02-11 07:14:00,33.5,29.7,30.00,SW,225,1.6,4.3,86,0.00,,,0.00,WUHU216HW,2013-02-11 12:14:00,
2013-02-11 07:19:00,33.7,29.8,29.99,West,270,1.1,4.3,86,0.00,,,0.00,WUHU216HW,2013-02-11 12:19:00,
2013-02-11 07:24:00,33.7,29.8,29.99,WSW,248,1.1,2.9,86,0.00,,,0.00,WUHU216HW,2013-02-11 12:24:00,
2013-02-11 07:30:00,33.5,29.7,29.99,NW,315,1.1,3.8,86,0.00,,,0.00,WUHU216HW,2013-02-11 12:30:00,
2013-02-11 07:35:00,33.7,29.8,29.98,NW,315,1.3,3.8,86,0.00,,,0.00,WUHU216HW,2013-02-11 12:35:00,
2013-02-11 07:40:00,33.7,30.2,29.98,NNW,338,1.8,5.1,87,0.00,,,0.00,WUHU216HW,2013-02-11 12:40:00,
2013-02-11 07:45:00,33.8,30.0,29.97,NW,315,1.6,5.1,86,0.00,,,0.00,WUHU216HW,2013-02-11 12:45:00,
2013-02-11 07:50:00,33.8,30.6,29.97,WNW,293,2.2,5.4,88,0.00,,,0.00,WUHU216HW,2013-02-11 12:50:00,
2013-02-11 07:55:00,34.2,31.0,29.97,North,0,2.0,7.8,88,0.00,,,0.00,WUHU216HW,2013-02-11 12:55:00,
2013-02-11 08:00:00,34.2,31.0,29.97,NNW,338,3.1,7.8,88,0.00,,,0.00,WUHU216HW,2013-02-11 13:00:00,
2013-02-11 08:05:00,34.4,31.4,29.97,NNE,23,4.0,4.0,89,0.00,,,0.00,WUHU216HW,2013-02-11 13:05:00,
2013-02-11 08:10:00,34.6,31.6,29.96,West,270,3.1,4.7,89,0.00,,,0.00,WUHU216HW,2013-02-11 13:10:00,
2013-02-11 08:15:00,34.6,31.6,29.95,North,0,3.4,5.1,89,0.00,,,0.00,WUHU216HW,2013-02-11 13:15:00,
2013-02-11 08:20:00,34.7,31.8,29.95,NNW,338,2.7,5.4,89,0.00,,,0.00,WUHU216HW,2013-02-11 13:20:00,
2013-02-11 08:25:00,34.7,31.8,29.95,North,0,1.3,5.4,89,0.02,,,0.01,WUHU216HW,2013-02-11 13:25:00,
2013-02-11 08:31:00,34.9,32.0,29.95,NNW,338,2.9,3.6,89,0.02,,,0.02,WUHU216HW,2013-02-11 13:31:00,
2013-02-11 08:36:00,34.9,32.0,29.94,NW,315,1.3,3.6,89,0.02,,,0.02,WUHU216HW,2013-02-11 13:36:00,
2013-02-11 08:41:00,34.9,32.0,29.94,NE,45,1.8,4.7,89,0.02,,,0.02,WUHU216HW,2013-02-11 13:41:00,
2013-02-11 08:46:00,35.1,32.1,29.94,NW,315,1.8,4.7,89,0.02,,,0.02,WUHU216HW,2013-02-11 13:46:00,
2013-02-11 08:51:00,35.3,32.3,29.94,NNW,338,3.1,3.1,89,0.03,,,0.03,WUHU216HW,2013-02-11 13:51:00,
2013-02-11 08:56:00,35.5,32.5,29.93,NNW,338,0.9,3.1,89,0.04,,,0.04,WUHU216HW,2013-02-11 13:56:00,
2013-02-11 09:02:00,35.6,32.4,29.92,North,0,0.4,1.8,88,0.05,,,0.04,WUHU216HW,2013-02-11 14:02:00,
2013-02-11 09:07:00,35.8,32.9,29.91,WNW,293,0.4,2.5,89,0.06,,,0.06,WUHU216HW,2013-02-11 14:07:00,
2013-02-11 09:12:00,36.2,33.2,29.91,NW,315,0.9,3.4,89,0.06,,,0.06,WUHU216HW,2013-02-11 14:12:00,
2013-02-11 09:17:00,36.4,33.4,29.90,SSW,203,2.5,3.4,89,0.07,,,0.06,WUHU216HW,2013-02-11 14:17:00,
2013-02-11 09:22:00,36.7,33.8,29.90,North,0,2.9,2.9,89,0.07,,,0.08,WUHU216HW,2013-02-11 14:22:00,
2013-02-11 09:27:00,36.9,33.9,29.90,NW,315,2.0,2.9,89,0.06,,,0.08,WUHU216HW,2013-02-11 14:27:00,
2013-02-11 09:32:00,37.3,34.3,29.89,WSW,248,1.1,2.9,89,0.07,,,0.08,WUHU216HW,2013-02-11 14:32:00,
2013-02-11 09:37:00,37.4,34.7,29.89,WNW,293,1.8,2.2,90,0.08,,,0.10,WUHU216HW,2013-02-11 14:37:00,
2013-02-11 09:42:00,37.8,35.1,29.89,NNW,338,1.8,4.3,90,0.08,,,0.10,WUHU216HW,2013-02-11 14:42:00,
2013-02-11 09:47:00,38.0,35.3,29.89,NW,315,1.1,4.3,90,0.08,,,0.10,WUHU216HW,2013-02-11 14:47:00,
2013-02-11 09:53:00,38.2,35.5,29.89,WNW,293,2.7,3.4,90,0.07,,,0.11,WUHU216HW,2013-02-11 14:53:00,
2013-02-11 09:58:00,38.2,35.5,29.88,North,0,2.0,4.7,90,0.08,,,0.12,WUHU216HW,2013-02-11 14:58:00,
2013-02-11 10:03:00,38.2,35.5,29.88,North,0,0.9,4.7,90,0.06,,,0.12,WUHU216HW,2013-02-11 15:03:00,
2013-02-11 10:08:00,38.3,35.6,29.88,North,0,1.1,2.9,90,0.06,,,0.12,WUHU216HW,2013-02-11 15:08:00,
2013-02-11 10:13:00,38.5,35.8,29.87,North,0,1.8,2.5,90,0.07,,,0.13,WUHU216HW,2013-02-11 15:13:00,
2013-02-11 10:18:00,38.7,36.0,29.87,North,0,6.7,6.7,90,0.06,,,0.14,WUHU216HW,2013-02-11 15:18:00,
2013-02-11 10:24:00,38.9,36.2,29.87,NW,315,2.0,6.7,90,0.06,,,0.14,WUHU216HW,2013-02-11 15:24:00,
2013-02-11 10:29:00,39.1,36.4,29.86,NE,45,1.8,3.4,90,0.06,,,0.15,WUHU216HW,2013-02-11 15:29:00,
2013-02-11 10:35:00,39.2,36.5,29.86,NNW,338,2.0,3.4,90,0.05,,,0.15,WUHU216HW,2013-02-11 15:35:00,
2013-02-11 10:40:00,39.2,36.5,29.86,North,0,1.8,3.1,90,0.06,,,0.16,WUHU216HW,2013-02-11 15:40:00,
2013-02-11 10:46:00,39.6,36.9,29.85,North,0,1.1,2.0,90,0.06,,,0.16,WUHU216HW,2013-02-11 15:46:00,
2013-02-11 10:51:00,39.8,37.1,29.85,NNE,23,1.1,2.0,90,0.06,,,0.17,WUHU216HW,2013-02-11 15:51:00,
2013-02-11 10:56:00,39.8,37.1,29.85,North,0,1.3,2.2,90,0.06,,,0.18,WUHU216HW,2013-02-11 15:56:00,
2013-02-11 11:01:00,39.8,37.1,29.85,NE,45,1.1,2.5,90,0.06,,,0.18,WUHU216HW,2013-02-11 16:01:00,
2013-02-11 11:06:00,40.0,37.3,29.84,NNW,338,2.0,2.5,90,0.06,,,0.18,WUHU216HW,2013-02-11 16:06:00,
2013-02-11 11:11:00,40.0,37.3,29.84,North,0,1.1,3.4,90,0.06,,,0.19,WUHU216HW,2013-02-11 16:11:00,
2013-02-11 11:16:00,40.1,37.4,29.84,NE,45,2.5,3.4,90,0.05,,,0.19,WUHU216HW,2013-02-11 16:16:00,
2013-02-11 11:21:00,40.1,37.4,29.84,NE,45,3.1,3.6,90,0.05,,,0.20,WUHU216HW,2013-02-11 16:21:00,
2013-02-11 11:26:00,40.3,37.6,29.84,NE,45,1.3,3.6,90,0.05,,,0.20,WUHU216HW,2013-02-11 16:26:00,
2013-02-11 11:31:00,40.3,37.6,29.83,North,0,0.9,2.5,90,0.05,,,0.20,WUHU216HW,2013-02-11 16:31:00,
2013-02-11 11:36:00,40.5,38.1,29.82,NNE,23,2.2,4.7,91,0.04,,,0.20,WUHU216HW,2013-02-11 16:36:00,
2013-02-11 11:41:00,40.9,38.4,29.81,NE,45,2.9,4.7,91,0.04,,,0.20,WUHU216HW,2013-02-11 16:41:00,
2013-02-11 11:46:00,41.0,38.6,29.81,NNE,23,2.0,2.9,91,0.03,,,0.20,WUHU216HW,2013-02-11 16:46:00,
2013-02-11 11:51:00,41.4,39.0,29.80,North,0,0.9,4.0,91,0.02,,,0.20,WUHU216HW,2013-02-11 16:51:00,
2013-02-11 11:57:00,41.6,39.2,29.80,NE,45,4.5,4.7,91,0.02,,,0.20,WUHU216HW,2013-02-11 16:57:00,
2013-02-11 12:02:00,41.6,39.2,29.80,NE,45,2.5,4.7,91,0.02,,,0.20,WUHU216HW,2013-02-11 17:02:00,
2013-02-11 12:07:00,41.6,39.2,29.79,NE,45,2.2,3.4,91,0.01,,,0.20,WUHU216HW,2013-02-11 17:07:00,
2013-02-11 12:12:00,41.4,39.0,29.79,North,0,1.3,4.0,91,0.01,,,0.20,WUHU216HW,2013-02-11 17:12:00,
2013-02-11 12:17:00,41.4,39.0,29.78,NE,45,2.2,4.0,91,0.00,,,0.20,WUHU216HW,2013-02-11 17:17:00,
2013-02-11 12:22:00,41.4,39.0,29.78,North,0,1.1,2.7,91,0.00,,,0.20,WUHU216HW,2013-02-11 17:22:00,
2013-02-11 12:27:00,41.4,38.7,29.78,NNE,23,2.0,2.7,90,0.00,,,0.20,WUHU216HW,2013-02-11 17:27:00,
2013-02-11 12:32:00,41.4,39.0,29.78,NE,45,2.0,2.5,91,0.00,,,0.20,WUHU216HW,2013-02-11 17:32:00,
2013-02-11 12:38:00,41.6,38.9,29.77,NE,45,1.6,2.0,90,0.00,,,0.20,WUHU216HW,2013-02-11 17:38:00,
2013-02-11 12:43:00,41.8,39.1,29.76,North,0,0.7,2.2,90,0.00,,,0.20,WUHU216HW,2013-02-11 17:43:00,
2013-02-11 12:48:00,42.1,39.7,29.76,NE,45,2.5,2.5,91,0.01,,,0.21,WUHU216HW,2013-02-11 17:48:00,
2013-02-11 12:53:00,42.5,40.1,29.75,NE,45,2.5,2.5,91,0.01,,,0.21,WUHU216HW,2013-02-11 17:53:00,
2013-02-11 12:58:00,42.5,40.1,29.75,NE,45,1.3,2.5,91,0.01,,,0.21,WUHU216HW,2013-02-11 17:58:00,
2013-02-11 13:03:00,42.7,40.2,29.74,NNE,23,1.3,2.5,91,0.01,,,0.21,WUHU216HW,2013-02-11 18:03:00,
2013-02-11 13:08:00,43.2,40.8,29.73,NNE,23,2.5,2.7,91,0.01,,,0.21,WUHU216HW,2013-02-11 18:08:00,
2013-02-11 13:13:00,43.7,41.3,29.72,NE,45,2.0,2.7,91,0.01,,,0.21,WUHU216HW,2013-02-11 18:13:00,
2013-02-11 13:18:00,44.1,41.7,29.72,NNE,23,1.8,4.0,91,0.01,,,0.21,WUHU216HW,2013-02-11 18:18:00,
2013-02-11 13:23:00,44.1,41.9,29.72,NE,45,2.0,4.0,92,0.01,,,0.21,WUHU216HW,2013-02-11 18:23:00,
2013-02-11 13:28:00,43.9,41.5,29.72,ENE,68,2.5,2.7,91,0.01,,,0.21,WUHU216HW,2013-02-11 18:28:00,
2013-02-11 13:33:00,43.7,41.3,29.71,NNE,23,1.8,2.7,91,0.01,,,0.21,WUHU216HW,2013-02-11 18:33:00,
2013-02-11 13:38:00,43.6,41.1,29.71,NE,45,2.5,3.6,91,0.01,,,0.21,WUHU216HW,2013-02-11 18:38:00,
2013-02-11 13:43:00,43.6,41.1,29.71,NNE,23,1.8,3.6,91,0.01,,,0.21,WUHU216HW,2013-02-11 18:43:00,
2013-02-11 13:48:00,43.6,41.1,29.71,NNE,23,1.8,2.9,91,0.00,,,0.21,WUHU216HW,2013-02-11 18:48:00,
2013-02-11 13:53:00,43.4,40.7,29.71,NNE,23,1.3,2.9,90,0.00,,,0.21,WUHU216HW,2013-02-11 18:53:00,
2013-02-11 13:58:00,43.2,40.5,29.71,NNE,23,2.0,2.2,90,0.00,,,0.21,WUHU216HW,2013-02-11 18:58:00,
2013-02-11 14:03:00,43.2,40.5,29.71,NE,45,0.9,2.5,90,0.00,,,0.21,WUHU216HW,2013-02-11 19:03:00,
2013-02-11 14:08:00,43.2,40.5,29.71,NNE,23,0.7,2.5,90,0.00,,,0.21,WUHU216HW,2013-02-11 19:08:00,
2013-02-11 14:13:00,43.2,40.5,29.70,NNE,23,1.6,1.6,90,0.00,,,0.21,WUHU216HW,2013-02-11 19:13:00,
2013-02-11 14:18:00,43.2,40.5,29.70,NNE,23,1.3,1.8,90,0.00,,,0.21,WUHU216HW,2013-02-11 19:18:00,
2013-02-11 14:23:00,43.2,40.5,29.70,NNE,23,1.3,1.8,90,0.00,,,0.21,WUHU216HW,2013-02-11 19:23:00,
2013-02-11 14:28:00,43.2,40.5,29.70,NNE,23,1.1,2.9,90,0.00,,,0.21,WUHU216HW,2013-02-11 19:28:00,
2013-02-11 14:33:00,43.0,40.3,29.69,NNE,23,1.1,2.9,90,0.00,,,0.21,WUHU216HW,2013-02-11 19:33:00,
2013-02-11 14:39:00,42.8,40.1,29.69,NE,45,2.0,4.0,90,0.00,,,0.21,WUHU216HW,2013-02-11 19:39:00,
2013-02-11 14:44:00,42.8,40.1,29.68,North,0,1.1,4.0,90,0.00,,,0.21,WUHU216HW,2013-02-11 19:44:00,
2013-02-11 14:50:00,42.8,40.1,29.68,NE,45,2.5,4.0,90,0.00,,,0.21,WUHU216HW,2013-02-11 19:50:00,
2013-02-11 14:55:00,42.8,40.1,29.68,NE,45,2.9,4.0,90,0.00,,,0.21,WUHU216HW,2013-02-11 19:55:00,
2013-02-11 15:00:00,42.8,40.4,29.67,NE,45,3.4,3.4,91,0.00,,,0.21,WUHU216HW,2013-02-11 20:00:00,
2013-02-11 15:05:00,42.8,40.1,29.67,NNE,23,2.9,3.4,90,0.00,,,0.21,WUHU216HW,2013-02-11 20:05:00,
2013-02-11 15:10:00,42.8,40.4,29.67,NNE,23,1.1,3.4,91,0.00,,,0.21,WUHU216HW,2013-02-11 20:10:00,
2013-02-11 15:15:00,42.8,40.4,29.66,North,0,3.8,3.8,91,0.00,,,0.21,WUHU216HW,2013-02-11 20:15:00,
2013-02-11 15:21:00,42.8,40.4,29.66,NNE,23,2.5,3.8,91,0.00,,,0.21,WUHU216HW,2013-02-11 20:21:00,
2013-02-11 15:26:00,42.8,40.4,29.66,ENE,68,0.4,3.4,91,0.00,,,0.21,WUHU216HW,2013-02-11 20:26:00,
2013-02-11 15:31:00,42.8,40.4,29.66,NNE,23,1.6,3.4,91,0.00,,,0.21,WUHU216HW,2013-02-11 20:31:00,
2013-02-11 15:36:00,42.8,40.4,29.65,North,0,2.5,3.1,91,0.00,,,0.21,WUHU216HW,2013-02-11 20:36:00,
2013-02-11 15:41:00,42.7,40.2,29.65,NE,45,2.5,4.3,91,0.00,,,0.21,WUHU216HW,2013-02-11 20:41:00,
2013-02-11 15:46:00,42.5,40.1,29.65,NE,45,2.2,4.3,91,0.00,,,0.21,WUHU216HW,2013-02-11 20:46:00,
2013-02-11 15:51:00,42.3,39.9,29.65,NNE,23,2.9,4.0,91,0.00,,,0.21,WUHU216HW,2013-02-11 20:51:00,
2013-02-11 15:56:00,42.1,39.7,29.65,ENE,68,4.9,4.9,91,0.00,,,0.21,WUHU216HW,2013-02-11 20:56:00,
2013-02-11 16:01:00,42.1,39.7,29.65,ENE,68,2.5,6.0,91,0.00,,,0.21,WUHU216HW,2013-02-11 21:01:00,
2013-02-11 16:06:00,41.8,39.3,29.64,North,0,3.8,6.0,91,0.00,,,0.21,WUHU216HW,2013-02-11 21:06:00,
2013-02-11 16:11:00,41.8,39.3,29.64,NE,45,3.8,4.7,91,0.00,,,0.21,WUHU216HW,2013-02-11 21:11:00,
2013-02-11 16:16:00,41.4,39.0,29.63,North,0,3.1,5.1,91,0.00,,,0.21,WUHU216HW,2013-02-11 21:16:00,
2013-02-11 16:21:00,41.4,39.0,29.63,NE,45,2.5,5.1,91,0.00,,,0.21,WUHU216HW,2013-02-11 21:21:00,
2013-02-11 16:26:00,41.2,38.8,29.63,NNE,23,6.7,6.7,91,0.00,,,0.21,WUHU216HW,2013-02-11 21:26:00,
2013-02-11 16:31:00,41.0,38.6,29.63,NE,45,1.6,6.7,91,0.00,,,0.21,WUHU216HW,2013-02-11 21:31:00,
2013-02-11 16:36:00,40.9,38.4,29.62,NNE,23,2.2,4.3,91,0.00,,,0.21,WUHU216HW,2013-02-11 21:36:00,
2013-02-11 16:41:00,41.0,38.6,29.62,NE,45,2.0,3.4,91,0.00,,,0.21,WUHU216HW,2013-02-11 21:41:00,
2013-02-11 16:46:00,40.9,38.4,29.62,NE,45,1.8,3.4,91,0.00,,,0.21,WUHU216HW,2013-02-11 21:46:00,
2013-02-11 16:52:00,40.7,38.3,29.63,North,0,1.8,2.5,91,0.00,,,0.21,WUHU216HW,2013-02-11 21:52:00,
2013-02-11 16:57:00,40.5,38.1,29.63,NE,45,2.9,3.4,91,0.00,,,0.21,WUHU216HW,2013-02-11 21:57:00,
2013-02-11 17:02:00,40.5,38.1,29.63,NE,45,0.4,4.0,91,0.00,,,0.21,WUHU216HW,2013-02-11 22:02:00,
2013-02-11 17:07:00,40.3,37.9,29.62,North,0,1.1,4.0,91,0.00,,,0.21,WUHU216HW,2013-02-11 22:07:00,
2013-02-11 17:12:00,40.3,37.9,29.62,NE,45,2.7,4.3,91,0.00,,,0.21,WUHU216HW,2013-02-11 22:12:00,
2013-02-11 17:17:00,40.3,37.9,29.61,NE,45,1.1,4.3,91,0.00,,,0.21,WUHU216HW,2013-02-11 22:17:00,
2013-02-11 17:23:00,40.1,37.7,29.62,NE,45,1.6,4.0,91,0.00,,,0.21,WUHU216HW,2013-02-11 22:23:00,
2013-02-11 17:28:00,40.0,37.5,29.62,NE,45,1.3,2.5,91,0.00,,,0.21,WUHU216HW,2013-02-11 22:28:00,
2013-02-11 17:33:00,40.0,37.5,29.62,ESE,113,0.0,2.5,91,0.00,,,0.21,WUHU216HW,2013-02-11 22:33:00,
2013-02-11 17:38:00,40.0,37.5,29.61,ENE,68,2.5,2.5,91,0.00,,,0.21,WUHU216HW,2013-02-11 22:38:00,
2013-02-11 17:43:00,40.1,38.0,29.61,East,90,1.8,2.5,92,0.00,,,0.21,WUHU216HW,2013-02-11 22:43:00,
2013-02-11 17:48:00,40.1,38.0,29.60,NE,45,1.1,1.8,92,0.00,,,0.21,WUHU216HW,2013-02-11 22:48:00,
2013-02-11 17:53:00,40.0,37.5,29.60,NE,45,1.8,1.8,91,0.00,,,0.21,WUHU216HW,2013-02-11 22:53:00,
2013-02-11 17:58:00,40.0,37.8,29.60,NE,45,0.9,1.8,92,0.00,,,0.21,WUHU216HW,2013-02-11 22:58:00,
2013-02-11 18:03:00,40.0,37.8,29.60,NE,45,0.7,1.8,92,0.00,,,0.21,WUHU216HW,2013-02-11 23:03:00,
2013-02-11 18:08:00,40.0,37.8,29.60,NNE,23,1.1,1.3,92,0.00,,,0.21,WUHU216HW,2013-02-11 23:08:00,
2013-02-11 18:13:00,40.0,37.8,29.60,NE,45,0.9,1.1,92,0.00,,,0.21,WUHU216HW,2013-02-11 23:13:00,
2013-02-11 18:18:00,40.0,37.8,29.60,NE,45,1.1,1.8,92,0.00,,,0.21,WUHU216HW,2013-02-11 23:18:00,
2013-02-11 18:23:00,40.0,37.8,29.60,NE,45,3.1,3.1,92,0.00,,,0.21,WUHU216HW,2013-02-11 23:23:00,
2013-02-11 18:28:00,40.0,37.8,29.60,NNE,23,0.4,3.1,92,0.00,,,0.21,WUHU216HW,2013-02-11 23:28:00,
2013-02-11 18:35:00,40.0,37.8,29.60,NE,45,0.9,1.8,92,0.00,,,0.21,WUHU216HW,2013-02-11 23:35:00,
2013-02-11 18:40:00,40.0,37.8,29.60,NE,45,0.7,1.3,92,0.00,,,0.21,WUHU216HW,2013-02-11 23:40:00,
2013-02-11 18:45:00,40.0,37.8,29.60,NE,45,0.9,1.3,92,0.00,,,0.21,WUHU216HW,2013-02-11 23:45:00,
2013-02-11 18:50:00,40.0,37.8,29.59,NE,45,0.2,2.0,92,0.00,,,0.21,WUHU216HW,2013-02-11 23:50:00,
2013-02-11 18:55:00,40.0,37.8,29.59,NE,45,1.3,2.0,92,0.00,,,0.21,WUHU216HW,2013-02-11 23:55:00,
2013-02-11 19:00:00,40.0,37.8,29.59,ENE,68,0.4,1.3,92,0.00,,,0.21,WUHU216HW,2013-02-12 00:00:00,
2013-02-11 19:06:00,40.0,37.8,29.59,ENE,68,1.3,1.3,92,0.00,,,0.21,WUHU216HW,2013-02-12 00:06:00,
2013-02-11 19:11:00,40.0,38.1,29.58,NE,45,0.9,1.3,93,0.00,,,0.21,WUHU216HW,2013-02-12 00:11:00,
2013-02-11 19:16:00,40.0,37.8,29.58,NNE,23,0.4,1.3,92,0.00,,,0.21,WUHU216HW,2013-02-12 00:16:00,
2013-02-11 19:21:00,40.0,38.1,29.58,NNE,23,1.6,1.6,93,0.00,,,0.21,WUHU216HW,2013-02-12 00:21:00,
2013-02-11 19:28:00,40.0,38.1,29.58,NNE,23,0.4,1.6,93,0.00,,,0.21,WUHU216HW,2013-02-12 00:28:00,
2013-02-11 19:33:00,40.0,38.1,29.58,NNE,23,1.1,1.1,93,0.00,,,0.21,WUHU216HW,2013-02-12 00:33:00,
2013-02-11 19:38:00,39.8,37.9,29.58,NNE,23,0.4,1.1,93,0.00,,,0.21,WUHU216HW,2013-02-12 00:38:00,
2013-02-11 19:43:00,39.8,37.9,29.58,NNE,23,0.7,1.1,93,0.00,,,0.21,WUHU216HW,2013-02-12 00:43:00,
2013-02-11 19:48:00,39.8,37.9,29.58,NNE,23,0.2,0.9,93,0.00,,,0.21,WUHU216HW,2013-02-12 00:48:00,
2013-02-11 19:53:00,39.8,37.9,29.58,NNE,23,0.7,0.9,93,0.00,,,0.21,WUHU216HW,2013-02-12 00:53:00,
2013-02-11 19:58:00,39.6,37.7,29.58,NNE,23,0.0,0.9,93,0.00,,,0.21,WUHU216HW,2013-02-12 00:58:00,
2013-02-11 20:03:00,39.6,37.7,29.58,NNE,23,0.7,1.1,93,0.00,,,0.21,WUHU216HW,2013-02-12 01:03:00,
2013-02-11 20:08:00,39.6,37.7,29.58,NNE,23,0.0,1.1,93,0.00,,,0.21,WUHU216HW,2013-02-12 01:08:00,
2013-02-11 20:14:00,39.6,37.7,29.57,NNE,23,0.0,0.2,93,0.00,,,0.21,WUHU216HW,2013-02-12 01:14:00,
2013-02-11 20:20:00,39.8,37.9,29.58,NNE,23,0.0,0.7,93,0.00,,,0.21,WUHU216HW,2013-02-12 01:20:00,
2013-02-11 20:25:00,39.6,37.7,29.58,NNE,23,0.0,0.7,93,0.00,,,0.21,WUHU216HW,2013-02-12 01:25:00,
2013-02-11 20:30:00,39.6,37.7,29.58,NNE,23,0.0,0.0,93,0.00,,,0.21,WUHU216HW,2013-02-12 01:30:00,
2013-02-11 20:35:00,39.6,37.7,29.58,NNE,23,0.0,0.0,93,0.00,,,0.21,WUHU216HW,2013-02-12 01:35:00,
2013-02-11 20:40:00,39.6,37.7,29.58,NNE,23,0.0,0.0,93,0.00,,,0.21,WUHU216HW,2013-02-12 01:40:00,
2013-02-11 20:45:00,39.6,37.7,29.57,NNE,23,0.0,0.2,93,0.00,,,0.21,WUHU216HW,2013-02-12 01:45:00,
2013-02-11 20:50:00,39.6,37.7,29.57,NNE,23,0.0,0.2,93,0.00,,,0.21,WUHU216HW,2013-02-12 01:50:00,
2013-02-11 20:55:00,39.4,37.5,29.57,NNE,23,0.2,0.2,93,0.01,,,0.22,WUHU216HW,2013-02-12 01:55:00,
2013-02-11 21:00:00,39.4,37.5,29.57,NNE,23,0.0,0.4,93,0.01,,,0.22,WUHU216HW,2013-02-12 02:00:00,
2013-02-11 21:05:00,39.6,37.7,29.59,SSE,158,0.4,0.9,93,0.01,,,0.22,WUHU216HW,2013-02-12 02:05:00,
2013-02-11 21:11:00,39.6,37.7,29.59,SSE,158,0.0,0.9,93,0.01,,,0.22,WUHU216HW,2013-02-12 02:11:00,
2013-02-11 21:16:00,39.6,37.7,29.59,SSE,158,0.4,0.7,93,0.01,,,0.22,WUHU216HW,2013-02-12 02:16:00,
2013-02-11 21:21:00,39.6,37.7,29.59,SSE,158,0.0,0.4,93,0.01,,,0.22,WUHU216HW,2013-02-12 02:21:00,
2013-02-11 21:26:00,39.8,37.9,29.59,SSW,203,0.0,0.4,93,0.01,,,0.22,WUHU216HW,2013-02-12 02:26:00,
2013-02-11 21:33:00,40.0,38.1,29.59,SE,135,0.4,0.7,93,0.01,,,0.22,WUHU216HW,2013-02-12 02:33:00,
2013-02-11 21:38:00,40.0,38.1,29.59,SE,135,0.9,0.9,93,0.01,,,0.22,WUHU216HW,2013-02-12 02:38:00,
2013-02-11 21:43:00,40.0,38.1,29.58,SE,135,0.0,0.9,93,0.01,,,0.22,WUHU216HW,2013-02-12 02:43:00,
2013-02-11 21:49:00,39.8,37.9,29.58,SE,135,0.4,0.4,93,0.00,,,0.22,WUHU216HW,2013-02-12 02:49:00,
2013-02-11 21:54:00,39.6,37.7,29.58,SE,135,0.0,0.4,93,0.00,,,0.22,WUHU216HW,2013-02-12 02:54:00,
2013-02-11 21:59:00,39.4,37.5,29.58,SE,135,0.0,0.0,93,0.00,,,0.22,WUHU216HW,2013-02-12 02:59:00,
2013-02-11 22:04:00,39.4,37.5,29.58,SE,135,0.2,0.2,93,0.00,,,0.22,WUHU216HW,2013-02-12 03:04:00,
2013-02-11 22:09:00,39.2,37.4,29.58,SE,135,0.0,0.2,93,0.00,,,0.22,WUHU216HW,2013-02-12 03:09:00,
2013-02-11 22:14:00,39.2,37.4,29.58,SE,135,0.0,0.4,93,0.00,,,0.22,WUHU216HW,2013-02-12 03:14:00,
2013-02-11 22:19:00,39.2,37.4,29.59,SE,135,0.0,0.4,93,0.00,,,0.22,WUHU216HW,2013-02-12 03:19:00,
2013-02-11 22:24:00,39.1,37.2,29.59,SE,135,0.0,0.4,93,0.00,,,0.22,WUHU216HW,2013-02-12 03:24:00,
2013-02-11 22:29:00,39.1,37.2,29.59,SE,135,0.0,0.2,93,0.00,,,0.22,WUHU216HW,2013-02-12 03:29:00,
2013-02-11 22:34:00,39.1,37.2,29.59,SE,135,0.2,0.4,93,0.00,,,0.22,WUHU216HW,2013-02-12 03:34:00,
2013-02-11 22:39:00,39.1,37.2,29.59,SE,135,0.4,0.4,93,0.00,,,0.22,WUHU216HW,2013-02-12 03:39:00,
2013-02-11 22:44:00,39.1,37.2,29.58,ENE,68,0.9,1.8,93,0.00,,,0.22,WUHU216HW,2013-02-12 03:44:00,
2013-02-11 22:49:00,38.9,37.0,29.59,ESE,113,0.4,1.8,93,0.00,,,0.22,WUHU216HW,2013-02-12 03:49:00,
2013-02-11 22:54:00,38.9,36.7,29.59,NE,45,0.7,1.3,92,0.00,,,0.22,WUHU216HW,2013-02-12 03:54:00,
2013-02-11 22:59:00,38.9,36.7,29.60,ENE,68,1.1,1.6,92,0.00,,,0.22,WUHU216HW,2013-02-12 03:59:00,
2013-02-11 23:06:00,38.9,37.0,29.60,ENE,68,1.1,1.8,93,0.00,,,0.22,WUHU216HW,2013-02-12 04:06:00,
2013-02-11 23:11:00,39.1,37.2,29.60,NE,45,0.0,1.8,93,0.00,,,0.22,WUHU216HW,2013-02-12 04:11:00,
2013-02-11 23:16:00,39.1,37.2,29.60,NE,45,0.0,1.8,93,0.00,,,0.22,WUHU216HW,2013-02-12 04:16:00,
2013-02-11 23:21:00,38.9,37.0,29.60,ENE,68,0.4,0.9,93,0.00,,,0.22,WUHU216HW,2013-02-12 04:21:00,
2013-02-11 23:26:00,38.9,36.7,29.60,ENE,68,0.0,0.7,92,0.00,,,0.22,WUHU216HW,2013-02-12 04:26:00,
2013-02-11 23:31:00,38.7,36.5,29.60,ENE,68,1.1,1.1,92,0.00,,,0.22,WUHU216HW,2013-02-12 04:31:00,
2013-02-11 23:36:00,38.5,36.4,29.60,ENE,68,0.2,1.1,92,0.00,,,0.22,WUHU216HW,2013-02-12 04:36:00,
2013-02-11 23:41:00,38.5,36.4,29.59,NE,45,0.0,0.7,92,0.00,,,0.22,WUHU216HW,2013-02-12 04:41:00,
2013-02-11 23:46:00,38.5,36.4,29.60,NE,45,0.4,0.9,92,0.00,,,0.22,WUHU216HW,2013-02-12 04:46:00,
2013-02-11 23:51:00,38.5,36.4,29.60,NE,45,0.4,1.1,92,0.00,,,0.22,WUHU216HW,2013-02-12 04:51:00,
2013-02-11 23:58:00,38.3,36.2,29.59,NE,45,0.4,0.7,92,0.00,,,0.22,WUHU216HW,2013-02-12 04:58:00,